Pleasanton, CA (94588)

4:46 PM PST on December 17, 2014 (GMT -0800)
MesoWest | Change Station
CLOSE
Current Station
Personal Weather Station
Location: Pleasanton, CA
Elevation: 99 ft
Nearby Weather Stations

Elev 99 ft 37.70 °N, 121.91 °W | Updated 7 days ago

Rain
Rain
51 °F
Feels Like 51 °F
N
6
Wind Variable Wind from WSW
Gusts 6 mph

Today
High -- | Low -- °F
--% Chance of Precip.
Yesterday
High -- | Low -- °F
Precip. -- in
7:16 AM 4:50 PM
Waning Crescent, 18% visible
Pressure 30.04 in
Visibility 10.0 miles
Clouds Mostly Cloudy 5000 ft
Mostly Cloudy 6000 ft
Overcast 8000 ft
Dew Point 46 °F
Humidity 82%
Rainfall -9999.00 in
Snow Depth Not available.
UV 0 out of 12
Pollen 1.30 out of 12
Air Quality Not available.
Flu Activity Not available.
METAR KLVK 172353Z 23005KT 10SM BKN050 BKN060 OVC080 14/08 A3003 RMK AO2 SLP170 T01390078 10156 20106 55005

More Conditions Fewer Conditions

Pressure 30.04 in
Visibility 10.0 miles
Clouds Mostly Cloudy 5000 ft
Mostly Cloudy 6000 ft
Overcast 8000 ft
Dew Point 46 °F
Humidity 82%
Rainfall -9999.00 in
Snow Depth Not available.
UV 0 out of 12
Pollen 1.30 out of 12
Air Quality Not available.
Flu Activity Not available.
METAR KLVK 172353Z 23005KT 10SM BKN050 BKN060 OVC080 14/08 A3003 RMK AO2 SLP170 T01390078 10156 20106 55005

More Conditions Fewer Conditions

10-Day Weather Forecast

Almanac

Astronomy

Dec. 17, 2014 Rise Set
Actual Time
Civil Twilight
Nautical Twilight
Astronomical Twilight
Moon
Length of Visible Light
Length of Day
Tomorrow will be .
, % of the Moon is Illuminated

Today's Extremes

State Highs State Lows

Community

WunderPhotos

Upload Photos

1,778,837 photos uploaded!

WunderBlogs® & News

Nearby

Air Quality

  Air Quality AQ Index Pollutant
Not available.

Snow Depth

Station Depth Elevation

Earthquake Activity

City Distance Mag. Time & Date
Minimum magnitude displayed is 2.5.

Coastal Water Temperatures

Place Temperature

Nearby Weather Stations